Time;durP1;ratioP1;P1;durP2;ratioP2;P2;SDS_P1;SDS_P2;PMS_P1;PMS_P2;Temp;Humidity;BMP_temperature;BMP_pressure;BME280_temperature;BME280_humidity;BME280_pressure;Samples;Min_cycle;Max_cycle;Signal;HPM_P1;HPM_P2
2022/04/11 00:01:47;;;;;;;5.88;2.15;;;7.20;64.20;;;;;;5052997;28;20043;-30
2022/04/11 00:04:13;;;;;;;3.10;1.90;;;7.20;64.30;;;;;;5052916;28;20074;-30
2022/04/11 00:06:38;;;;;;;2.60;2.22;;;7.20;64.30;;;;;;5053116;28;20029;-31
2022/04/11 00:09:04;;;;;;;4.03;2.13;;;7.20;64.40;;;;;;5053088;28;20053;-30
2022/04/11 00:11:30;;;;;;;7.40;2.30;;;7.20;64.60;;;;;;5053089;28;20024;-30
2022/04/11 00:13:55;;;;;;;3.20;2.13;;;7.10;64.60;;;;;;5052825;28;20029;-30
2022/04/11 00:16:21;;;;;;;5.45;2.20;;;7.10;64.60;;;;;;5052767;28;20049;-31
2022/04/11 00:18:47;;;;;;;3.42;2.22;;;7.10;64.70;;;;;;5052650;28;20439;-32
2022/04/11 00:21:12;;;;;;;4.07;2.33;;;7.10;64.80;;;;;;5051498;28;20056;-30
2022/04/11 00:23:38;;;;;;;4.00;2.25;;;7.10;64.90;;;;;;5052568;28;20077;-33
2022/04/11 00:26:03;;;;;;;6.18;2.28;;;7.10;65.00;;;;;;5051417;28;20412;-35
2022/04/11 00:28:29;;;;;;;2.67;2.20;;;7.10;65.00;;;;;;5052508;28;20100;-31
2022/04/11 00:30:55;;;;;;;5.82;2.58;;;7.10;65.00;;;;;;5052639;28;20039;-29
2022/04/11 00:33:20;;;;;;;5.45;2.50;;;7.10;65.00;;;;;;5052438;28;20025;-30
2022/04/11 00:35:46;;;;;;;5.18;2.40;;;7.10;65.10;;;;;;5052430;28;20044;-30
2022/04/11 00:38:12;;;;;;;3.60;2.40;;;7.10;65.20;;;;;;5052478;28;20087;-31
2022/04/11 00:40:38;;;;;;;4.07;2.20;;;7.00;65.20;;;;;;5052433;28;20017;-29
2022/04/11 00:43:03;;;;;;;3.53;2.38;;;7.00;65.30;;;;;;5052547;28;20160;-31
2022/04/11 00:45:29;;;;;;;4.93;2.42;;;7.00;65.40;;;;;;5052526;28;20048;-31
2022/04/11 00:51:22;;;;;;;4.35;2.40;;;7.00;65.80;;;;;;5052437;28;20059;-38
2022/04/11 00:53:51;;;;;;;3.33;2.28;;;6.90;65.70;;;;;;5052371;28;20520;-32
2022/04/11 00:56:19;;;;;;;3.55;2.42;;;6.90;65.80;;;;;;5052331;28;20025;-31
2022/04/11 00:58:46;;;;;;;3.08;2.20;;;6.90;65.80;;;;;;5052603;28;20448;-31
2022/04/11 01:01:13;;;;;;;4.53;2.30;;;6.90;65.80;;;;;;5051001;28;20128;-31
2022/04/11 01:03:39;;;;;;;3.97;2.30;;;6.90;65.90;;;;;;5055776;28;20021;-30
2022/04/11 01:06:06;;;;;;;4.10;2.20;;;7.00;66.00;;;;;;5056228;28;20021;-31
2022/04/11 01:08:32;;;;;;;5.93;2.65;;;7.00;66.00;;;;;;5056142;28;20021;-46
2022/04/11 01:10:58;;;;;;;3.72;2.33;;;7.00;66.00;;;;;;5055741;28;20542;-46
2022/04/11 01:13:24;;;;;;;3.67;2.40;;;7.00;66.00;;;;;;5055882;28;20025;-46
2022/04/11 01:15:58;;;;;;;4.20;2.63;;;7.00;66.00;;;;;;5056358;28;20025;-46
2022/04/11 01:18:24;;;;;;;4.22;2.70;;;7.00;66.10;;;;;;5055608;28;20029;-37
2022/04/11 01:20:50;;;;;;;3.92;2.60;;;7.00;66.00;;;;;;5055541;28;20444;-46
2022/04/11 01:23:15;;;;;;;4.03;2.50;;;7.00;66.10;;;;;;5055504;28;20028;-45
2022/04/11 01:25:42;;;;;;;6.78;2.75;;;7.00;66.10;;;;;;5055552;28;20067;-46
2022/04/11 01:28:08;;;;;;;5.57;2.72;;;7.00;66.10;;;;;;5055689;28;20116;-47
2022/04/11 01:30:33;;;;;;;3.15;2.30;;;7.00;66.10;;;;;;5055434;28;20075;-46
2022/04/11 01:32:59;;;;;;;3.72;2.80;;;7.00;66.00;;;;;;5055394;28;20059;-46
2022/04/11 01:35:26;;;;;;;5.53;2.80;;;7.00;66.00;;;;;;5055448;28;20021;-46
2022/04/11 01:37:53;;;;;;;6.45;2.40;;;7.10;66.10;;;;;;5055365;28;20021;-46
2022/04/11 01:40:19;;;;;;;3.10;2.50;;;7.10;66.10;;;;;;5055363;28;20060;-46
2022/04/11 01:42:45;;;;;;;4.82;2.63;;;7.10;66.70;;;;;;5055360;28;20056;-46
2022/04/11 01:45:11;;;;;;;5.70;2.78;;;7.00;66.20;;;;;;5055213;28;20033;-46
2022/04/11 01:47:39;;;;;;;5.25;2.60;;;7.00;66.20;;;;;;5055136;28;20025;-46
2022/04/11 01:50:06;;;;;;;4.47;2.58;;;7.00;66.20;;;;;;5055080;28;20484;-46
2022/04/11 01:52:32;;;;;;;4.85;2.60;;;7.00;66.20;;;;;;5055030;28;20024;-46
2022/04/11 01:54:57;;;;;;;4.53;2.50;;;7.00;66.30;;;;;;5054833;28;20104;-46
2022/04/11 01:57:23;;;;;;;5.72;2.55;;;7.00;66.30;;;;;;5054973;28;20116;-46
2022/04/11 01:59:49;;;;;;;4.88;2.80;;;7.00;66.30;;;;;;5054804;28;20056;-46
2022/04/11 02:02:14;;;;;;;5.28;2.67;;;7.00;66.30;;;;;;5054926;28;20107;-46
2022/04/11 02:04:40;;;;;;;3.90;2.72;;;7.00;66.30;;;;;;5054856;28;20037;-46
2022/04/11 02:07:06;;;;;;;4.25;2.80;;;6.90;66.20;;;;;;5054999;28;20112;-46
2022/04/11 02:09:31;;;;;;;5.63;2.67;;;6.90;66.20;;;;;;5054532;28;20556;-46
2022/04/11 02:11:57;;;;;;;6.45;2.78;;;6.90;66.30;;;;;;5054671;28;20100;-46
2022/04/11 02:14:22;;;;;;;6.53;2.75;;;6.90;66.30;;;;;;5053604;28;20032;-46
2022/04/11 02:16:48;;;;;;;3.97;2.50;;;6.90;66.40;;;;;;5054375;28;20025;-46
2022/04/11 02:19:13;;;;;;;3.80;2.45;;;6.80;66.40;;;;;;5054483;28;20489;-46
2022/04/11 02:21:39;;;;;;;5.10;3.03;;;6.80;66.50;;;;;;5054468;28;20029;-46
2022/04/11 02:24:05;;;;;;;4.80;2.85;;;6.80;66.60;;;;;;5054433;28;20040;-46
2022/04/11 02:26:31;;;;;;;3.95;2.50;;;6.80;66.70;;;;;;5054462;28;20525;-46
2022/04/11 02:28:57;;;;;;;4.95;2.95;;;6.80;66.70;;;;;;5054319;28;20123;-46
2022/04/11 02:31:22;;;;;;;5.35;3.20;;;6.80;66.70;;;;;;5054579;28;20029;-45
2022/04/11 02:33:48;;;;;;;6.93;3.10;;;6.80;66.70;;;;;;5054383;28;20405;-46
2022/04/11 02:36:13;;;;;;;4.28;3.10;;;6.70;66.70;;;;;;5054359;28;20025;-46
2022/04/11 02:38:39;;;;;;;5.10;2.95;;;6.70;66.70;;;;;;5054314;28;20056;-47
2022/04/11 02:41:04;;;;;;;8.38;3.40;;;6.70;66.90;;;;;;5054423;28;20485;-46
2022/04/11 02:43:30;;;;;;;4.95;2.70;;;6.70;66.90;;;;;;5054422;28;20018;-46
2022/04/11 02:45:56;;;;;;;4.70;3.08;;;6.70;66.90;;;;;;5054290;28;20078;-48
2022/04/11 02:48:21;;;;;;;5.55;2.75;;;6.60;66.90;;;;;;5054008;28;20473;-46
2022/04/11 02:50:47;;;;;;;6.13;3.50;;;6.60;67.00;;;;;;5053854;28;20025;-46
2022/04/11 02:53:12;;;;;;;4.40;2.78;;;6.60;67.00;;;;;;5053963;28;20024;-46
2022/04/11 02:55:38;;;;;;;4.07;3.00;;;6.60;67.00;;;;;;5053963;28;20029;-46
2022/04/11 02:58:04;;;;;;;3.83;3.17;;;6.60;67.10;;;;;;5053801;28;20025;-46
2022/04/11 03:00:29;;;;;;;7.65;3.50;;;6.60;67.20;;;;;;5053664;28;20061;-46
2022/04/11 03:02:55;;;;;;;4.90;3.10;;;6.50;67.20;;;;;;5053665;28;20025;-46
2022/04/11 03:05:20;;;;;;;7.03;3.15;;;6.50;67.40;;;;;;5053672;28;20029;-46
2022/04/11 03:07:46;;;;;;;5.68;3.20;;;6.50;67.50;;;;;;5053796;28;20548;-46
2022/04/11 03:10:11;;;;;;;5.25;3.28;;;6.40;67.50;;;;;;5053580;28;20021;-46
2022/04/11 03:12:37;;;;;;;7.07;3.58;;;6.50;67.50;;;;;;5053656;28;20092;-46
2022/04/11 03:15:03;;;;;;;3.70;3.00;;;6.40;67.50;;;;;;5053533;28;20017;-46
2022/04/11 03:17:29;;;;;;;5.85;3.53;;;6.40;67.50;;;;;;5053692;28;20017;-46
2022/04/11 03:19:55;;;;;;;5.05;3.40;;;6.40;67.60;;;;;;5053295;28;20013;-46
2022/04/11 03:22:21;;;;;;;6.53;3.40;;;6.40;67.70;;;;;;5053454;28;20104;-46
2022/04/11 03:24:46;;;;;;;5.05;3.63;;;6.40;67.70;;;;;;5053008;28;20039;-46
2022/04/11 03:27:12;;;;;;;6.20;3.50;;;6.40;67.70;;;;;;5053682;28;20025;-46
2022/04/11 03:29:37;;;;;;;5.38;3.47;;;6.40;67.70;;;;;;5053408;28;20025;-47
2022/04/11 03:32:03;;;;;;;5.65;3.22;;;6.40;67.70;;;;;;5053379;28;20477;-46
2022/04/11 03:34:29;;;;;;;5.68;3.22;;;6.40;67.80;;;;;;5051986;28;20032;-46
2022/04/11 03:36:55;;;;;;;5.60;3.53;;;6.30;67.70;;;;;;5053117;28;20437;-46
2022/04/11 03:39:20;;;;;;;5.60;3.63;;;6.30;67.80;;;;;;5053154;28;20067;-46
2022/04/11 03:41:46;;;;;;;5.50;3.60;;;6.30;67.90;;;;;;5053194;28;20040;-46
2022/04/11 03:44:12;;;;;;;4.78;3.20;;;6.30;67.90;;;;;;5053036;28;20021;-46
2022/04/11 03:46:38;;;;;;;4.60;3.67;;;6.30;67.90;;;;;;5052856;28;20029;-46
2022/04/11 03:49:04;;;;;;;6.50;3.13;;;6.30;68.00;;;;;;5052696;28;20021;-46
2022/04/11 03:51:30;;;;;;;5.32;3.33;;;6.20;68.00;;;;;;5053001;28;20029;-46
2022/04/11 03:53:55;;;;;;;5.85;3.42;;;6.20;68.10;;;;;;5052680;28;20037;-46
2022/04/11 03:56:21;;;;;;;5.53;3.50;;;6.20;68.10;;;;;;5051426;28;20029;-46
2022/04/11 03:58:47;;;;;;;4.32;3.30;;;6.20;68.20;;;;;;5052631;28;20028;-46
2022/04/11 04:01:13;;;;;;;5.25;3.75;;;6.20;68.90;;;;;;5052550;28;20045;-46
2022/04/11 04:03:40;;;;;;;5.38;3.40;;;6.10;68.20;;;;;;5052159;28;20025;-46
2022/04/11 04:06:06;;;;;;;6.65;3.92;;;6.10;68.20;;;;;;5052353;28;20025;-46
2022/04/11 04:08:31;;;;;;;6.43;3.92;;;6.10;68.30;;;;;;5052386;28;20017;-46
2022/04/11 04:10:57;;;;;;;5.88;3.88;;;6.10;68.40;;;;;;5052356;28;20029;-46
2022/04/11 04:13:22;;;;;;;6.03;3.55;;;6.00;68.40;;;;;;5052507;28;20021;-46
2022/04/11 04:15:48;;;;;;;5.70;4.05;;;6.10;68.50;;;;;;5052356;28;20029;-46
2022/04/11 04:18:14;;;;;;;5.65;3.72;;;6.10;68.50;;;;;;5052702;28;20047;-46
2022/04/11 04:20:40;;;;;;;8.05;4.25;;;6.00;68.40;;;;;;5052326;28;20025;-46
2022/04/11 04:23:06;;;;;;;5.70;3.70;;;6.10;68.50;;;;;;5052056;28;20051;-50
2022/04/11 04:25:36;;;;;;;6.25;3.65;;;6.10;68.50;;;;;;5052018;28;20028;-46
2022/04/11 04:28:03;;;;;;;6.82;4.30;;;6.10;68.50;;;;;;5051930;28;20029;-45
2022/04/11 04:30:29;;;;;;;7.80;3.75;;;6.10;68.40;;;;;;5051973;28;20219;-46
2022/04/11 04:32:58;;;;;;;5.97;4.28;;;6.20;68.40;;;;;;5051978;28;20076;-46
2022/04/11 04:35:25;;;;;;;4.57;3.85;;;6.20;68.40;;;;;;5052603;28;20017;-46
2022/04/11 04:37:52;;;;;;;4.32;3.92;;;6.30;68.30;;;;;;5051340;28;20033;-46
2022/04/11 04:40:17;;;;;;;7.05;3.92;;;6.20;68.20;;;;;;5052263;28;20424;-45
2022/04/11 04:42:43;;;;;;;6.07;4.13;;;6.30;68.20;;;;;;5052027;28;20082;-45
2022/04/11 04:45:09;;;;;;;5.90;3.88;;;6.30;68.20;;;;;;5052016;28;20024;-47
2022/04/11 04:47:34;;;;;;;5.13;3.67;;;6.30;68.20;;;;;;5052333;28;20029;-47
2022/04/11 04:50:00;;;;;;;4.85;3.78;;;6.40;68.20;;;;;;5051841;28;20433;-45
2022/04/11 04:52:26;;;;;;;6.05;4.68;;;6.40;68.10;;;;;;5052142;28;20480;-45
2022/04/11 04:54:54;;;;;;;4.82;3.97;;;6.40;68.10;;;;;;5051857;28;20119;-46
2022/04/11 04:57:20;;;;;;;5.68;4.28;;;6.40;68.00;;;;;;5052058;28;20028;-45
2022/04/11 04:59:46;;;;;;;6.60;4.20;;;6.40;68.00;;;;;;5051988;28;20509;-46
2022/04/11 05:02:12;;;;;;;6.78;4.50;;;6.40;68.00;;;;;;5052259;28;20032;-45
2022/04/11 05:04:37;;;;;;;6.28;4.65;;;6.40;68.00;;;;;;5051843;28;20074;-46
2022/04/11 05:07:03;;;;;;;6.63;4.40;;;6.30;68.10;;;;;;5051900;28;20122;-45
2022/04/11 05:09:29;;;;;;;6.50;4.60;;;6.40;68.20;;;;;;5051970;28;20489;-46
2022/04/11 05:11:54;;;;;;;6.63;4.97;;;6.40;68.20;;;;;;5051763;28;20427;-45
2022/04/11 05:14:20;;;;;;;7.80;4.82;;;6.40;68.20;;;;;;5051866;28;20021;-46
2022/04/11 05:16:46;;;;;;;8.32;5.20;;;6.40;68.10;;;;;;5051656;28;20053;-46
2022/04/11 05:19:11;;;;;;;6.88;4.40;;;6.40;68.10;;;;;;5051787;28;20385;-46
2022/04/11 05:21:37;;;;;;;7.53;4.82;;;6.50;68.10;;;;;;5051677;28;20051;-46
2022/04/11 05:24:02;;;;;;;7.90;5.32;;;6.50;68.00;;;;;;5050461;28;20032;-46
2022/04/11 05:26:28;;;;;;;8.18;4.80;;;6.60;68.10;;;;;;5051749;28;20033;-46
2022/04/11 05:28:54;;;;;;;7.20;4.90;;;6.60;68.60;;;;;;5051799;28;20041;-46
2022/04/11 05:31:19;;;;;;;7.95;5.07;;;6.70;68.00;;;;;;5051788;28;20025;-46
2022/04/11 05:33:45;;;;;;;7.18;5.25;;;6.70;67.90;;;;;;5051438;28;20689;-46
2022/04/11 05:36:11;;;;;;;7.25;5.30;;;6.80;67.90;;;;;;5051584;28;20548;-46
2022/04/11 05:38:37;;;;;;;7.25;5.10;;;6.80;67.80;;;;;;5051864;28;20017;-46
2022/04/11 05:41:02;;;;;;;7.57;5.20;;;6.80;67.70;;;;;;5051553;28;20025;-46
2022/04/11 05:43:28;;;;;;;7.40;4.68;;;6.90;67.60;;;;;;5051846;28;20488;-46
2022/04/11 05:45:54;;;;;;;7.32;4.57;;;6.90;67.50;;;;;;5051783;28;20036;-46
2022/04/11 05:48:19;;;;;;;5.68;4.38;;;6.90;67.40;;;;;;5051930;28;20021;-47
2022/04/11 05:50:45;;;;;;;6.45;4.63;;;7.00;67.30;;;;;;5055242;28;20102;-45
2022/04/11 05:53:10;;;;;;;6.28;4.57;;;7.00;67.10;;;;;;5055375;28;20121;-46
2022/04/11 05:55:36;;;;;;;6.57;4.65;;;7.10;67.10;;;;;;5055341;28;20024;-46
2022/04/11 05:58:02;;;;;;;6.65;4.22;;;7.20;67.00;;;;;;5054028;28;20432;-32
2022/04/11 06:00:27;;;;;;;6.68;4.07;;;7.20;66.80;;;;;;5055056;28;20053;-31
2022/04/11 06:02:53;;;;;;;7.60;4.53;;;7.30;66.80;;;;;;5055052;28;20021;-36
2022/04/11 06:05:19;;;;;;;5.07;4.25;;;7.30;66.60;;;;;;5054774;28;20035;-31
2022/04/11 06:07:44;;;;;;;5.45;4.50;;;7.30;66.50;;;;;;5054617;28;20029;-31
2022/04/11 06:10:12;;;;;;;6.50;4.13;;;7.40;66.50;;;;;;5054525;28;20036;-33
2022/04/11 06:12:38;;;;;;;5.97;4.13;;;7.40;66.50;;;;;;5054797;28;20082;-34
2022/04/11 06:15:04;;;;;;;5.60;4.57;;;7.40;66.50;;;;;;5054454;28;20486;-31
2022/04/11 06:17:30;;;;;;;6.32;4.00;;;7.30;66.40;;;;;;5053058;28;20017;-31
2022/04/11 06:19:58;;;;;;;7.10;4.25;;;7.30;66.30;;;;;;5054316;28;20111;-30
2022/04/11 06:22:24;;;;;;;5.97;4.78;;;7.30;66.40;;;;;;5054315;28;20070;-36
2022/04/11 06:24:50;;;;;;;7.63;3.97;;;7.30;66.30;;;;;;5054227;28;20408;-31
2022/04/11 06:27:17;;;;;;;5.70;4.30;;;7.30;66.40;;;;;;5052945;28;20118;-30
2022/04/11 06:29:43;;;;;;;4.53;3.80;;;7.30;66.50;;;;;;5052785;28;20029;-31
2022/04/11 06:32:09;;;;;;;6.43;4.15;;;7.30;66.60;;;;;;5052682;28;20029;-29
2022/04/11 06:34:36;;;;;;;7.72;4.63;;;7.30;66.60;;;;;;5053989;28;20019;-34
2022/04/11 06:37:02;;;;;;;6.93;4.63;;;7.30;66.60;;;;;;5053797;28;20032;-36
2022/04/11 06:39:28;;;;;;;7.00;4.68;;;7.30;66.60;;;;;;5053894;28;20108;-31
2022/04/11 06:41:53;;;;;;;7.30;4.45;;;7.30;66.50;;;;;;5054108;28;20060;-31
2022/04/11 06:44:19;;;;;;;6.13;4.53;;;7.30;66.50;;;;;;5053926;28;20029;-31
2022/04/11 06:46:45;;;;;;;6.15;4.38;;;7.30;66.50;;;;;;5053897;28;20029;-31
2022/04/11 06:49:11;;;;;;;6.22;4.60;;;7.30;66.50;;;;;;5053770;28;20029;-31
2022/04/11 06:51:36;;;;;;;6.15;4.70;;;7.40;66.40;;;;;;5053701;28;20028;-30
2022/04/11 06:54:02;;;;;;;6.50;4.68;;;7.40;66.30;;;;;;5053769;28;20053;-33
2022/04/11 06:56:28;;;;;;;6.45;5.05;;;7.50;66.20;;;;;;5054114;28;20103;-33
2022/04/11 06:58:53;;;;;;;5.95;4.50;;;7.50;66.10;;;;;;5053855;28;20022;-34
2022/04/11 07:01:19;;;;;;;6.28;4.90;;;7.60;66.10;;;;;;5053211;28;20053;-33
2022/04/11 07:03:44;;;;;;;7.28;4.57;;;7.60;66.00;;;;;;5053793;28;20025;-36
2022/04/11 07:06:10;;;;;;;7.63;4.50;;;7.70;65.90;;;;;;5053901;28;20056;-30
2022/04/11 07:08:36;;;;;;;7.32;4.47;;;7.70;65.80;;;;;;5053871;28;20480;-39
2022/04/11 07:11:04;;;;;;;6.10;4.47;;;7.80;65.70;;;;;;5053664;28;20021;-31
2022/04/11 07:13:30;;;;;;;6.13;4.72;;;7.80;65.70;;;;;;5053507;28;20025;-34
2022/04/11 07:15:56;;;;;;;6.53;4.38;;;7.90;65.60;;;;;;5053530;28;20086;-33
2022/04/11 07:18:27;;;;;;;6.60;4.47;;;8.00;65.50;;;;;;5053453;28;20025;-31
2022/04/11 07:20:53;;;;;;;5.63;4.38;;;8.10;65.40;;;;;;5053434;28;20048;-31
2022/04/11 07:23:19;;;;;;;6.68;4.80;;;8.10;65.30;;;;;;5053461;28;20021;-30
2022/04/11 07:25:45;;;;;;;5.80;4.35;;;8.20;65.20;;;;;;5053280;28;20020;-33
2022/04/11 07:28:11;;;;;;;9.25;4.80;;;8.20;65.40;;;;;;5051997;28;20048;-33
2022/04/11 07:30:37;;;;;;;6.93;4.70;;;8.30;65.50;;;;;;5053078;28;20412;-31
2022/04/11 07:33:03;;;;;;;8.13;5.00;;;8.30;65.30;;;;;;5053235;28;20031;-31
2022/04/11 07:35:29;;;;;;;7.65;4.50;;;8.30;65.30;;;;;;5053111;28;20102;-31
2022/04/11 07:37:57;;;;;;;7.60;4.90;;;8.40;65.20;;;;;;5053135;28;20108;-31
2022/04/11 07:40:26;;;;;;;6.47;4.78;;;8.40;65.00;;;;;;5053061;28;20308;-34
2022/04/11 07:42:53;;;;;;;6.82;4.63;;;8.50;65.20;;;;;;5052975;28;20017;-31
2022/04/11 07:45:23;;;;;;;5.88;4.35;;;8.60;65.00;;;;;;5052970;28;20028;-30
2022/04/11 07:47:48;;;;;;;7.18;5.22;;;8.70;64.80;;;;;;5052875;28;20079;-31
2022/04/11 07:50:14;;;;;;;6.80;4.43;;;8.80;64.70;;;;;;5035100;28;20025;-32
2022/04/11 07:52:42;;;;;;;8.80;5.00;;;8.80;64.50;;;;;;5052882;28;20028;-31
2022/04/11 07:55:09;;;;;;;6.05;4.80;;;8.90;64.60;;;;;;5053003;28;20407;-31
2022/04/11 07:57:35;;;;;;;8.02;5.07;;;9.00;64.50;;;;;;5051384;28;20116;-32
2022/04/11 08:00:01;;;;;;;6.57;4.78;;;9.10;64.70;;;;;;5052539;28;20167;-34
2022/04/11 08:02:27;;;;;;;5.97;4.50;;;9.10;64.50;;;;;;5052684;28;20095;-33
2022/04/11 08:04:53;;;;;;;8.75;5.20;;;9.20;64.50;;;;;;5052620;28;20416;-35
2022/04/11 08:07:19;;;;;;;6.20;4.80;;;9.30;64.50;;;;;;5052622;28;20021;-31
2022/04/11 08:09:45;;;;;;;5.05;3.83;;;9.40;64.30;;;;;;5052591;28;20025;-31
2022/04/11 08:12:11;;;;;;;6.13;4.20;;;9.40;64.10;;;;;;5052514;28;20104;-31
2022/04/11 08:14:37;;;;;;;6.10;4.70;;;9.50;64.10;;;;;;5052564;28;20476;-30
2022/04/11 08:17:03;;;;;;;5.28;4.18;;;9.60;64.20;;;;;;5051027;28;20024;-31
2022/04/11 08:19:32;;;;;;;8.25;4.60;;;9.60;64.10;;;;;;5052257;28;20021;-32
2022/04/11 08:21:58;;;;;;;5.32;3.65;;;9.70;64.50;;;;;;5052393;28;20025;-36
2022/04/11 08:24:23;;;;;;;5.18;4.30;;;9.80;66.40;;;;;;5052320;28;20587;-34
2022/04/11 08:26:50;;;;;;;7.10;4.53;;;9.80;68.10;;;;;;5052193;28;20036;-32
2022/04/11 08:29:17;;;;;;;8.50;4.60;;;9.90;68.20;;;;;;5052095;28;20366;-34
2022/04/11 08:31:43;;;;;;;7.38;4.20;;;10.00;67.90;;;;;;5050786;28;20474;-33
2022/04/11 08:34:09;;;;;;;7.00;4.05;;;10.10;67.40;;;;;;5052121;28;20021;-33
2022/04/11 08:36:34;;;;;;;6.40;4.28;;;10.20;67.00;;;;;;5052472;28;20028;-33
2022/04/11 08:39:00;;;;;;;5.18;3.70;;;10.30;66.50;;;;;;5052173;28;20021;-36
2022/04/11 08:41:31;;;;;;;6.53;3.83;;;10.30;66.40;;;;;;5052029;28;20182;-31
2022/04/11 08:43:56;;;;;;;6.53;4.15;;;10.40;66.40;;;;;;5052074;28;20024;-30
2022/04/11 08:46:23;;;;;;;7.22;3.45;;;10.40;66.20;;;;;;5052065;28;20021;-32
2022/04/11 08:48:48;;;;;;;5.03;3.65;;;10.50;65.60;;;;;;5051675;28;20025;-36
2022/04/11 08:51:14;;;;;;;6.15;3.78;;;10.60;65.40;;;;;;5052168;28;20139;-31
2022/04/11 08:53:42;;;;;;;6.68;3.70;;;10.70;65.40;;;;;;5051833;28;20087;-31
2022/04/11 08:56:07;;;;;;;6.72;4.18;;;10.70;65.00;;;;;;5052184;28;20362;-32
2022/04/11 08:58:33;;;;;;;6.40;3.90;;;10.80;65.00;;;;;;5051923;28;20029;-31
2022/04/11 09:00:59;;;;;;;5.90;2.75;;;10.90;65.00;;;;;;5052026;28;20494;-30
2022/04/11 09:03:24;;;;;;;4.55;3.25;;;11.00;64.70;;;;;;5051930;28;20048;-31
2022/04/11 09:06:08;;;;;;;5.28;3.65;;;11.10;64.60;;;;;;5051796;28;20028;-31
2022/04/11 09:08:49;;;;;;;;;;;11.20;64.90;;;;;;5052254;28;20032;-30
2022/04/11 09:11:31;;;;;;;4.45;2.75;;;11.30;64.70;;;;;;5052093;28;19909;-32
2022/04/11 09:13:58;;;;;;;4.78;3.10;;;11.40;64.30;;;;;;5051814;28;20100;-31
2022/04/11 09:16:24;;;;;;;5.53;3.42;;;11.40;64.10;;;;;;5052107;28;20056;-31
2022/04/11 09:18:55;;;;;;;5.07;3.17;;;11.50;64.50;;;;;;5050305;28;20025;-30
2022/04/11 09:21:25;;;;;;;6.00;2.90;;;11.60;63.80;;;;;;5050130;28;20032;-30
2022/04/11 09:24:15;;;;;;;4.82;2.80;;;11.70;63.70;;;;;;5052341;28;20072;-30
2022/04/11 09:26:41;;;;;;;5.40;3.25;;;11.90;64.30;;;;;;5055670;28;20009;-33
2022/04/11 09:29:07;;;;;;;3.53;2.95;;;12.00;65.00;;;;;;5055533;28;20025;-33
2022/04/11 09:31:33;;;;;;;3.67;2.72;;;12.10;64.20;;;;;;5055256;28;20096;-32
2022/04/11 09:34:12;;;;;;;5.43;3.10;;;12.20;64.50;;;;;;5053968;28;20099;-32
2022/04/11 09:36:55;;;;;;;5.97;2.97;;;12.30;64.20;;;;;;5055403;28;20013;-32
2022/04/11 09:39:23;;;;;;;6.03;2.63;;;12.40;63.50;;;;;;5054217;28;20048;-33
2022/04/11 09:41:49;;;;;;;6.88;2.83;;;12.40;64.20;;;;;;5055393;28;20485;-31
2022/04/11 09:44:35;;;;;;;3.75;2.28;;;12.50;63.60;;;;;;5055392;28;20029;-36
2022/04/11 09:47:05;;;;;;;4.07;2.88;;;12.60;63.40;;;;;;5055465;28;20091;-31
2022/04/11 09:49:32;;;;;;;3.13;2.22;;;12.60;63.20;;;;;;5055082;28;20021;-31
2022/04/11 09:52:12;;;;;;;3.83;2.40;;;12.70;63.70;;;;;;5055266;28;20473;-31
2022/04/11 09:54:58;;;;;;;2.88;2.00;;;12.70;64.40;;;;;;5055083;28;20385;-33
2022/04/11 09:57:29;;;;;;;4.35;2.63;;;12.80;64.90;;;;;;5054940;28;20025;-31
2022/04/11 09:59:56;;;;;;;3.67;2.03;;;12.90;65.80;;;;;;5054667;28;20057;-31
2022/04/11 10:02:22;;;;;;;3.25;2.05;;;13.00;65.30;;;;;;5054801;28;20481;-31
2022/04/11 10:04:49;;;;;;;1.95;1.73;;;13.00;65.00;;;;;;5054722;28;20079;-33
2022/04/11 10:07:15;;;;;;;3.67;1.90;;;13.10;65.80;;;;;;5054692;28;20033;-33
2022/04/11 10:09:41;;;;;;;2.15;1.88;;;13.20;65.10;;;;;;5054867;28;20029;-31
2022/04/11 10:12:08;;;;;;;2.60;1.70;;;13.20;64.30;;;;;;5054653;28;20078;-32
2022/04/11 10:14:35;;;;;;;2.17;1.52;;;13.30;66.00;;;;;;5054445;28;20018;-33
2022/04/11 10:17:02;;;;;;;2.67;1.85;;;13.30;65.50;;;;;;5054528;28;20033;-31
2022/04/11 10:19:33;;;;;;;5.63;2.13;;;13.30;65.10;;;;;;5054400;28;20477;-31
2022/04/11 10:22:05;;;;;;;2.20;2.00;;;13.40;65.60;;;;;;5054413;28;20013;-33
2022/04/11 10:24:33;;;;;;;3.45;1.77;;;13.40;64.20;;;;;;5054193;28;20234;-32
2022/04/11 10:27:19;;;;;;;1.85;1.70;;;13.50;65.40;;;;;;5054337;28;20544;-31
2022/04/11 10:29:45;;;;;;;3.67;2.17;;;13.50;65.70;;;;;;5054224;28;20122;-31
2022/04/11 10:32:12;;;;;;;3.55;1.95;;;13.60;65.60;;;;;;5054106;28;20055;-31
2022/04/11 10:35:03;;;;;;;4.63;2.20;;;13.60;66.40;;;;;;5052711;28;20108;-36
2022/04/11 10:37:49;;;;;;;3.08;1.88;;;13.70;65.40;;;;;;5053869;28;20025;-32
2022/04/11 10:40:17;;;;;;;3.53;2.10;;;13.70;66.20;;;;;;5050090;28;20041;-31
2022/04/11 10:43:01;;;;;;;4.70;2.65;;;13.70;66.10;;;;;;5053921;28;20083;-34
2022/04/11 10:45:36;;;;;;;3.67;2.20;;;13.80;65.50;;;;;;5053935;28;20477;-33
2022/04/11 10:48:03;;;;;;;2.22;1.80;;;13.80;65.80;;;;;;5053764;28;20104;-34
2022/04/11 10:50:43;;;;;;;3.58;2.20;;;13.90;66.20;;;;;;5053715;28;20079;-32
2022/04/11 10:53:12;;;;;;;3.03;1.67;;;13.90;65.40;;;;;;5053952;28;20021;-32
2022/04/11 10:56:02;;;;;;;2.90;2.22;;;13.90;66.20;;;;;;5052507;28;20045;-32
2022/04/11 10:58:52;;;;;;;1.90;1.48;;;14.00;65.50;;;;;;5053781;28;20021;-36
2022/04/11 11:01:46;;;;;;;2.47;2.20;;;14.00;66.90;;;;;;5053559;28;20473;-31
2022/04/11 11:04:19;;;;;;;2.50;2.10;;;13.90;66.60;;;;;;5053890;28;20477;-37
2022/04/11 11:06:45;;;;;;;1.88;1.52;;;14.00;66.60;;;;;;5053645;28;20025;-32
2022/04/11 11:09:16;;;;;;;2.47;2.00;;;14.00;68.00;;;;;;5053428;28;20450;-34
2022/04/11 11:11:42;;;;;;;2.10;1.90;;;14.00;67.20;;;;;;5053669;28;20389;-31
2022/04/11 11:14:37;;;;;;;2.50;1.83;;;14.00;65.80;;;;;;5053517;28;20092;-32
2022/04/11 11:17:03;;;;;;;1.70;1.60;;;14.10;66.40;;;;;;5053497;28;20040;-31
2022/04/11 11:19:29;;;;;;;2.28;1.95;;;14.20;66.20;;;;;;5052000;28;20044;-31
2022/04/11 11:21:55;;;;;;;3.53;2.63;;;14.20;66.10;;;;;;5053394;28;20507;-31
2022/04/11 11:24:20;;;;;;;3.50;2.40;;;14.20;64.90;;;;;;5052164;28;20040;-33
2022/04/11 11:26:58;;;;;;;2.55;1.98;;;14.30;64.80;;;;;;5053424;28;20033;-32
2022/04/11 11:29:31;;;;;;;3.10;1.90;;;14.30;64.00;;;;;;5053732;28;20029;-32
2022/04/11 11:32:01;;;;;;;4.50;2.25;;;14.40;64.00;;;;;;5053456;28;20025;-33
2022/04/11 11:34:30;;;;;;;2.60;2.30;;;14.50;63.60;;;;;;5053333;28;20120;-34
2022/04/11 11:37:00;;;;;;;4.07;2.03;;;14.60;63.90;;;;;;5053439;28;20481;-31
2022/04/11 11:39:27;;;;;;;3.33;1.92;;;14.70;64.00;;;;;;5053459;28;20100;-30
2022/04/11 11:41:56;;;;;;;3.75;2.67;;;14.80;63.00;;;;;;5053204;28;20021;-30
2022/04/11 11:44:22;;;;;;;2.22;1.85;;;14.80;62.00;;;;;;5053243;28;20477;-31
2022/04/11 11:46:54;;;;;;;2.58;1.70;;;14.90;63.40;;;;;;5052859;28;20074;-32
2022/04/11 11:49:24;;;;;;;3.22;2.10;;;15.00;63.90;;;;;;5053146;28;20024;-32
2022/04/11 11:51:50;;;;;;;2.95;1.92;;;15.10;63.60;;;;;;5053037;28;20105;-30
2022/04/11 11:54:34;;;;;;;5.22;2.65;;;15.10;64.30;;;;;;5051834;28;20035;-30
2022/04/11 11:57:00;;;;;;;2.55;1.90;;;15.10;62.40;;;;;;5053458;28;20473;-30
2022/04/11 11:59:25;;;;;;;3.30;2.42;;;15.10;62.70;;;;;;5052783;28;20051;-31
2022/04/11 12:04:40;;;;;;;3.17;2.30;;;15.20;61.80;;;;;;5053122;28;20052;-32
2022/04/11 12:07:06;;;;;;;5.57;2.38;;;15.30;61.30;;;;;;5052850;28;20054;-32
2022/04/11 12:09:37;;;;;;;2.47;1.90;;;15.40;60.90;;;;;;5052758;28;20024;-31
2022/04/11 12:12:08;;;;;;;2.22;1.90;;;15.50;61.80;;;;;;5052749;28;20543;-32
2022/04/11 12:14:59;;;;;;;2.60;1.83;;;15.60;62.00;;;;;;5052906;28;20059;-32
2022/04/11 12:17:36;;;;;;;2.67;1.58;;;15.60;61.50;;;;;;5052763;28;20112;-32
2022/04/11 12:20:11;;;;;;;3.55;2.05;;;15.60;61.90;;;;;;5052633;28;20047;-33
2022/04/11 12:22:37;;;;;;;3.40;1.92;;;15.70;61.20;;;;;;5051097;28;20480;-33
2022/04/11 12:25:21;;;;;;;4.90;2.00;;;15.70;61.00;;;;;;5051207;28;20017;-31
2022/04/11 12:27:49;;;;;;;4.32;1.80;;;15.80;60.20;;;;;;5052306;28;20029;-31
2022/04/11 12:30:15;;;;;;;2.67;1.98;;;15.90;60.00;;;;;;5052367;28;20094;-32
2022/04/11 12:32:41;;;;;;;2.58;1.90;;;15.90;60.00;;;;;;5052517;28;20091;-34
2022/04/11 12:35:19;;;;;;;4.20;1.95;;;16.00;59.90;;;;;;5052471;28;20489;-36
2022/04/11 12:37:49;;;;;;;3.90;2.22;;;16.00;58.70;;;;;;5052293;28;20020;-33
2022/04/11 12:40:18;;;;;;;2.55;1.60;;;16.10;57.90;;;;;;5052501;28;20428;-36
2022/04/11 12:42:45;;;;;;;3.50;1.90;;;16.20;58.60;;;;;;5052192;28;20033;-33
2022/04/11 12:45:15;;;;;;;2.20;1.50;;;16.30;58.90;;;;;;5052187;28;20075;-30
2022/04/11 12:48:02;;;;;;;4.07;2.00;;;16.30;58.20;;;;;;5052331;28;20060;-31
2022/04/11 12:50:28;;;;;;;2.97;1.52;;;16.40;57.50;;;;;;5052337;28;20037;-29
2022/04/11 12:52:54;;;;;;;4.93;2.30;;;16.50;58.50;;;;;;5052263;28;20029;-35
2022/04/11 12:55:28;;;;;;;4.22;2.00;;;16.50;58.90;;;;;;5050733;28;20112;-33
2022/04/11 12:58:08;;;;;;;2.63;1.65;;;16.60;58.00;;;;;;5052683;28;20059;-32
2022/04/11 13:00:36;;;;;;;5.07;2.30;;;16.60;58.40;;;;;;5055770;28;20091;-31
2022/04/11 13:03:02;;;;;;;3.33;1.83;;;16.60;57.20;;;;;;5056034;28;20013;-33